sensor_id;sensor_type;location;lat;lon;timestamp;temperature;humidity
1155;DHT22;566;48.414;9.118;2023-05-07T00:02:25;14.10;94.10
1155;DHT22;566;48.414;9.118;2023-05-07T00:04:50;14.10;94.00
1155;DHT22;566;48.414;9.118;2023-05-07T00:07:17;14.10;94.20
1155;DHT22;566;48.414;9.118;2023-05-07T00:09:43;14.00;94.30
1155;DHT22;566;48.414;9.118;2023-05-07T00:12:08;14.00;94.20
1155;DHT22;566;48.414;9.118;2023-05-07T00:14:34;14.00;94.30
1155;DHT22;566;48.414;9.118;2023-05-07T00:16:59;14.00;94.30
1155;DHT22;566;48.414;9.118;2023-05-07T00:19:25;14.00;94.20
1155;DHT22;566;48.414;9.118;2023-05-07T00:21:50;14.00;94.30
1155;DHT22;566;48.414;9.118;2023-05-07T00:24:18;14.00;94.30
1155;DHT22;566;48.414;9.118;2023-05-07T00:26:44;14.00;94.20
1155;DHT22;566;48.414;9.118;2023-05-07T00:29:09;14.00;94.40
1155;DHT22;566;48.414;9.118;2023-05-07T00:31:35;13.90;94.50
1155;DHT22;566;48.414;9.118;2023-05-07T00:34:01;14.00;94.50
1155;DHT22;566;48.414;9.118;2023-05-07T00:36:28;14.00;94.50
1155;DHT22;566;48.414;9.118;2023-05-07T00:38:56;14.00;94.50
1155;DHT22;566;48.414;9.118;2023-05-07T00:41:22;14.00;94.60
1155;DHT22;566;48.414;9.118;2023-05-07T00:43:47;14.00;94.40
1155;DHT22;566;48.414;9.118;2023-05-07T00:46:13;14.00;94.60
1155;DHT22;566;48.414;9.118;2023-05-07T00:48:41;14.00;94.60
1155;DHT22;566;48.414;9.118;2023-05-07T00:51:06;14.10;94.50
1155;DHT22;566;48.414;9.118;2023-05-07T00:53:32;14.10;94.40
1155;DHT22;566;48.414;9.118;2023-05-07T00:55:58;14.10;94.50
1155;DHT22;566;48.414;9.118;2023-05-07T00:58:23;14.00;94.60
1155;DHT22;566;48.414;9.118;2023-05-07T01:00:50;14.00;94.70
1155;DHT22;566;48.414;9.118;2023-05-07T01:03:15;14.00;94.60
1155;DHT22;566;48.414;9.118;2023-05-07T01:05:42;14.00;94.70
1155;DHT22;566;48.414;9.118;2023-05-07T01:08:08;14.00;94.80
1155;DHT22;566;48.414;9.118;2023-05-07T01:10:35;14.00;94.90
1155;DHT22;566;48.414;9.118;2023-05-07T01:13:01;14.00;94.80
1155;DHT22;566;48.414;9.118;2023-05-07T01:15:27;14.00;94.90
1155;DHT22;566;48.414;9.118;2023-05-07T01:17:53;13.90;95.00
1155;DHT22;566;48.414;9.118;2023-05-07T01:20:19;13.90;95.10
1155;DHT22;566;48.414;9.118;2023-05-07T01:22:45;13.90;95.30
1155;DHT22;566;48.414;9.118;2023-05-07T01:25:11;13.90;95.20
1155;DHT22;566;48.414;9.118;2023-05-07T01:27:40;13.90;95.30
1155;DHT22;566;48.414;9.118;2023-05-07T01:30:06;13.80;95.60
1155;DHT22;566;48.414;9.118;2023-05-07T01:33:12;13.90;95.70
1155;DHT22;566;48.414;9.118;2023-05-07T01:35:41;13.90;95.70
1155;DHT22;566;48.414;9.118;2023-05-07T01:38:09;13.90;95.80
1155;DHT22;566;48.414;9.118;2023-05-07T01:40:34;13.90;95.80
1155;DHT22;566;48.414;9.118;2023-05-07T01:43:02;13.90;95.70
1155;DHT22;566;48.414;9.118;2023-05-07T01:45:28;13.90;95.70
1155;DHT22;566;48.414;9.118;2023-05-07T01:47:55;13.90;95.80
1155;DHT22;566;48.414;9.118;2023-05-07T01:50:21;13.90;95.90
1155;DHT22;566;48.414;9.118;2023-05-07T01:52:47;13.80;95.90
1155;DHT22;566;48.414;9.118;2023-05-07T01:55:15;13.80;96.10
1155;DHT22;566;48.414;9.118;2023-05-07T01:57:41;13.80;96.10
1155;DHT22;566;48.414;9.118;2023-05-07T02:00:07;13.80;96.20
1155;DHT22;566;48.414;9.118;2023-05-07T02:02:34;13.70;96.30
1155;DHT22;566;48.414;9.118;2023-05-07T02:04:59;13.70;96.40
1155;DHT22;566;48.414;9.118;2023-05-07T02:07:26;13.70;96.40
1155;DHT22;566;48.414;9.118;2023-05-07T02:09:51;13.70;96.40
1155;DHT22;566;48.414;9.118;2023-05-07T02:12:17;13.70;96.50
1155;DHT22;566;48.414;9.118;2023-05-07T02:14:43;13.70;96.40
1155;DHT22;566;48.414;9.118;2023-05-07T02:17:08;13.70;96.50
1155;DHT22;566;48.414;9.118;2023-05-07T02:19:34;13.70;96.50
1155;DHT22;566;48.414;9.118;2023-05-07T02:21:59;13.60;96.60
1155;DHT22;566;48.414;9.118;2023-05-07T02:24:25;13.50;96.70
1155;DHT22;566;48.414;9.118;2023-05-07T02:26:50;13.50;96.70
1155;DHT22;566;48.414;9.118;2023-05-07T02:29:16;13.40;96.90
1155;DHT22;566;48.414;9.118;2023-05-07T02:31:41;13.20;96.80
1155;DHT22;566;48.414;9.118;2023-05-07T02:34:07;13.10;96.90
1155;DHT22;566;48.414;9.118;2023-05-07T02:36:32;13.00;97.00
1155;DHT22;566;48.414;9.118;2023-05-07T02:38:58;12.90;97.20
1155;DHT22;566;48.414;9.118;2023-05-07T02:41:23;12.80;97.20
1155;DHT22;566;48.414;9.118;2023-05-07T02:43:49;12.70;97.00
1155;DHT22;566;48.414;9.118;2023-05-07T02:46:14;12.70;97.00
1155;DHT22;566;48.414;9.118;2023-05-07T02:48:41;12.60;96.90
1155;DHT22;566;48.414;9.118;2023-05-07T02:51:06;12.50;96.50
1155;DHT22;566;48.414;9.118;2023-05-07T02:53:32;12.30;95.90
1155;DHT22;566;48.414;9.118;2023-05-07T02:55:59;12.20;95.40
1155;DHT22;566;48.414;9.118;2023-05-07T02:58:25;12.10;94.80
1155;DHT22;566;48.414;9.118;2023-05-07T03:00:51;12.00;94.20
1155;DHT22;566;48.414;9.118;2023-05-07T03:03:17;11.80;93.50
1155;DHT22;566;48.414;9.118;2023-05-07T03:05:43;11.70;92.40
1155;DHT22;566;48.414;9.118;2023-05-07T03:08:10;11.60;91.80
1155;DHT22;566;48.414;9.118;2023-05-07T03:10:36;11.60;91.70
1155;DHT22;566;48.414;9.118;2023-05-07T03:13:02;11.50;91.70
1155;DHT22;566;48.414;9.118;2023-05-07T03:15:28;11.40;91.20
1155;DHT22;566;48.414;9.118;2023-05-07T03:17:53;11.30;90.50
1155;DHT22;566;48.414;9.118;2023-05-07T03:20:19;11.20;89.70
1155;DHT22;566;48.414;9.118;2023-05-07T03:22:45;11.10;88.20
1155;DHT22;566;48.414;9.118;2023-05-07T03:25:10;11.10;87.80
1155;DHT22;566;48.414;9.118;2023-05-07T03:27:36;11.00;87.70
1155;DHT22;566;48.414;9.118;2023-05-07T03:30:02;10.90;87.40
1155;DHT22;566;48.414;9.118;2023-05-07T03:32:28;10.90;86.80
1155;DHT22;566;48.414;9.118;2023-05-07T03:34:53;10.80;86.30
1155;DHT22;566;48.414;9.118;2023-05-07T03:37:19;10.80;86.10
1155;DHT22;566;48.414;9.118;2023-05-07T03:39:45;10.70;85.80
1155;DHT22;566;48.414;9.118;2023-05-07T03:42:10;10.60;86.10
1155;DHT22;566;48.414;9.118;2023-05-07T03:44:36;10.60;85.80
1155;DHT22;566;48.414;9.118;2023-05-07T03:47:02;10.50;85.90
1155;DHT22;566;48.414;9.118;2023-05-07T03:49:28;10.40;84.80
1155;DHT22;566;48.414;9.118;2023-05-07T03:51:53;10.30;83.50
1155;DHT22;566;48.414;9.118;2023-05-07T03:54:19;10.40;82.20
1155;DHT22;566;48.414;9.118;2023-05-07T03:56:44;10.40;82.10
1155;DHT22;566;48.414;9.118;2023-05-07T03:59:10;10.30;81.60
1155;DHT22;566;48.414;9.118;2023-05-07T04:01:36;10.30;81.30
1155;DHT22;566;48.414;9.118;2023-05-07T04:04:01;10.20;81.30
1155;DHT22;566;48.414;9.118;2023-05-07T04:06:28;10.20;81.10
1155;DHT22;566;48.414;9.118;2023-05-07T04:08:53;10.10;82.10
1155;DHT22;566;48.414;9.118;2023-05-07T04:11:19;10.10;81.80
1155;DHT22;566;48.414;9.118;2023-05-07T04:13:45;10.10;81.50
1155;DHT22;566;48.414;9.118;2023-05-07T04:16:11;10.10;81.20
1155;DHT22;566;48.414;9.118;2023-05-07T04:18:36;10.00;81.10
1155;DHT22;566;48.414;9.118;2023-05-07T04:21:02;10.00;80.60
1155;DHT22;566;48.414;9.118;2023-05-07T04:23:27;10.10;79.70
1155;DHT22;566;48.414;9.118;2023-05-07T04:25:53;10.10;79.00
1155;DHT22;566;48.414;9.118;2023-05-07T04:28:19;10.10;79.20
1155;DHT22;566;48.414;9.118;2023-05-07T04:30:45;10.10;79.20
1155;DHT22;566;48.414;9.118;2023-05-07T04:33:11;10.20;79.10
1155;DHT22;566;48.414;9.118;2023-05-07T04:35:42;10.20;79.30
1155;DHT22;566;48.414;9.118;2023-05-07T04:38:08;10.30;79.70
1155;DHT22;566;48.414;9.118;2023-05-07T04:40:35;10.30;79.80
1155;DHT22;566;48.414;9.118;2023-05-07T04:43:01;10.40;80.50
1155;DHT22;566;48.414;9.118;2023-05-07T04:45:27;10.40;81.30
1155;DHT22;566;48.414;9.118;2023-05-07T04:47:52;10.40;81.10
1155;DHT22;566;48.414;9.118;2023-05-07T04:50:18;10.50;80.80
1155;DHT22;566;48.414;9.118;2023-05-07T04:52:44;10.60;81.00
1155;DHT22;566;48.414;9.118;2023-05-07T04:55:10;10.80;82.10
1155;DHT22;566;48.414;9.118;2023-05-07T04:57:36;10.80;83.00
1155;DHT22;566;48.414;9.118;2023-05-07T05:00:06;10.90;83.30
1155;DHT22;566;48.414;9.118;2023-05-07T05:02:33;11.00;84.80
1155;DHT22;566;48.414;9.118;2023-05-07T05:04:59;11.10;85.20
1155;DHT22;566;48.414;9.118;2023-05-07T05:07:25;11.20;86.50
1155;DHT22;566;48.414;9.118;2023-05-07T05:09:50;11.30;88.30
1155;DHT22;566;48.414;9.118;2023-05-07T05:12:16;11.30;89.20
1155;DHT22;566;48.414;9.118;2023-05-07T05:14:41;11.30;88.70
1155;DHT22;566;48.414;9.118;2023-05-07T05:17:08;11.40;89.30
1155;DHT22;566;48.414;9.118;2023-05-07T05:19:33;11.60;89.70
1155;DHT22;566;48.414;9.118;2023-05-07T05:22:02;11.80;91.10
1155;DHT22;566;48.414;9.118;2023-05-07T05:24:29;12.00;92.60
1155;DHT22;566;48.414;9.118;2023-05-07T05:26:55;12.20;93.00
1155;DHT22;566;48.414;9.118;2023-05-07T05:29:21;12.50;93.90
1155;DHT22;566;48.414;9.118;2023-05-07T05:31:46;12.70;95.20
1155;DHT22;566;48.414;9.118;2023-05-07T05:34:12;12.90;95.80
1155;DHT22;566;48.414;9.118;2023-05-07T05:36:37;13.10;97.10
1155;DHT22;566;48.414;9.118;2023-05-07T05:39:03;13.40;97.70
1155;DHT22;566;48.414;9.118;2023-05-07T05:41:29;13.60;97.50
1155;DHT22;566;48.414;9.118;2023-05-07T05:43:54;13.80;98.00
1155;DHT22;566;48.414;9.118;2023-05-07T05:46:20;13.90;98.00
1155;DHT22;566;48.414;9.118;2023-05-07T05:48:45;14.00;97.80
1155;DHT22;566;48.414;9.118;2023-05-07T05:51:14;14.20;98.00
1155;DHT22;566;48.414;9.118;2023-05-07T05:53:40;14.30;97.60
1155;DHT22;566;48.414;9.118;2023-05-07T05:56:06;14.40;97.70
1155;DHT22;566;48.414;9.118;2023-05-07T05:58:31;14.50;97.60
1155;DHT22;566;48.414;9.118;2023-05-07T06:00:58;14.50;97.60
1155;DHT22;566;48.414;9.118;2023-05-07T06:03:24;14.70;98.00
1155;DHT22;566;48.414;9.118;2023-05-07T06:05:49;14.90;97.50
1155;DHT22;566;48.414;9.118;2023-05-07T06:08:15;14.90;97.50
1155;DHT22;566;48.414;9.118;2023-05-07T06:10:41;14.80;97.40
1155;DHT22;566;48.414;9.118;2023-05-07T06:13:07;14.60;97.10
1155;DHT22;566;48.414;9.118;2023-05-07T06:15:32;14.50;97.30
1155;DHT22;566;48.414;9.118;2023-05-07T06:17:58;14.60;97.50
1155;DHT22;566;48.414;9.118;2023-05-07T06:20:23;14.90;97.30
1155;DHT22;566;48.414;9.118;2023-05-07T06:22:49;15.30;97.00
1155;DHT22;566;48.414;9.118;2023-05-07T06:25:15;15.60;96.50
1155;DHT22;566;48.414;9.118;2023-05-07T06:27:43;15.70;96.20
1155;DHT22;566;48.414;9.118;2023-05-07T06:30:08;15.90;96.20
1155;DHT22;566;48.414;9.118;2023-05-07T06:32:34;16.00;95.60
1155;DHT22;566;48.414;9.118;2023-05-07T06:34:59;15.90;95.30
1155;DHT22;566;48.414;9.118;2023-05-07T06:37:25;16.10;95.80
1155;DHT22;566;48.414;9.118;2023-05-07T06:39:51;16.30;95.20
1155;DHT22;566;48.414;9.118;2023-05-07T06:42:16;16.40;94.60
1155;DHT22;566;48.414;9.118;2023-05-07T06:44:42;16.40;94.30
1155;DHT22;566;48.414;9.118;2023-05-07T06:47:07;16.40;94.30
1155;DHT22;566;48.414;9.118;2023-05-07T06:49:33;16.30;94.20
1155;DHT22;566;48.414;9.118;2023-05-07T06:51:58;16.50;93.60
1155;DHT22;566;48.414;9.118;2023-05-07T06:54:24;16.50;93.60
1155;DHT22;566;48.414;9.118;2023-05-07T06:56:50;16.50;93.80
1155;DHT22;566;48.414;9.118;2023-05-07T06:59:15;16.60;93.80
1155;DHT22;566;48.414;9.118;2023-05-07T07:01:41;16.50;94.00
1155;DHT22;566;48.414;9.118;2023-05-07T07:04:07;16.50;94.10
1155;DHT22;566;48.414;9.118;2023-05-07T07:06:32;16.50;94.40
1155;DHT22;566;48.414;9.118;2023-05-07T07:08:59;16.60;94.20
1155;DHT22;566;48.414;9.118;2023-05-07T07:11:25;16.60;93.90
1155;DHT22;566;48.414;9.118;2023-05-07T07:13:50;16.60;94.70
1155;DHT22;566;48.414;9.118;2023-05-07T07:16:16;16.80;94.90
1155;DHT22;566;48.414;9.118;2023-05-07T07:18:42;17.30;93.50
1155;DHT22;566;48.414;9.118;2023-05-07T07:21:07;17.70;92.60
1155;DHT22;566;48.414;9.118;2023-05-07T07:23:33;18.00;92.10
1155;DHT22;566;48.414;9.118;2023-05-07T07:25:58;18.20;91.80
1155;DHT22;566;48.414;9.118;2023-05-07T07:28:24;18.10;91.30
1155;DHT22;566;48.414;9.118;2023-05-07T07:30:50;18.20;91.90
1155;DHT22;566;48.414;9.118;2023-05-07T07:33:15;18.50;90.40
1155;DHT22;566;48.414;9.118;2023-05-07T07:35:44;18.90;89.10
1155;DHT22;566;48.414;9.118;2023-05-07T07:38:10;19.40;88.00
1155;DHT22;566;48.414;9.118;2023-05-07T07:40:35;20.50;85.60
1155;DHT22;566;48.414;9.118;2023-05-07T07:43:01;21.20;82.40
1155;DHT22;566;48.414;9.118;2023-05-07T07:45:27;21.50;81.80
1155;DHT22;566;48.414;9.118;2023-05-07T07:47:52;21.20;81.60
1155;DHT22;566;48.414;9.118;2023-05-07T07:50:18;20.90;82.30
1155;DHT22;566;48.414;9.118;2023-05-07T07:52:44;20.70;82.60
1155;DHT22;566;48.414;9.118;2023-05-07T07:55:09;20.90;82.40
1155;DHT22;566;48.414;9.118;2023-05-07T07:57:35;20.80;82.20
1155;DHT22;566;48.414;9.118;2023-05-07T08:00:01;21.20;81.90
1155;DHT22;566;48.414;9.118;2023-05-07T08:02:30;21.60;81.10
1155;DHT22;566;48.414;9.118;2023-05-07T08:04:56;21.90;79.70
1155;DHT22;566;48.414;9.118;2023-05-07T08:07:26;22.60;78.20
1155;DHT22;566;48.414;9.118;2023-05-07T08:09:56;23.60;75.50
1155;DHT22;566;48.414;9.118;2023-05-07T08:12:25;24.90;72.80
1155;DHT22;566;48.414;9.118;2023-05-07T08:14:53;25.70;70.20
1155;DHT22;566;48.414;9.118;2023-05-07T08:17:19;26.30;70.20
1155;DHT22;566;48.414;9.118;2023-05-07T08:19:48;26.40;68.60
1155;DHT22;566;48.414;9.118;2023-05-07T08:22:14;26.50;67.90
1155;DHT22;566;48.414;9.118;2023-05-07T08:24:50;26.10;68.10
1155;DHT22;566;48.414;9.118;2023-05-07T08:27:16;26.70;67.30
1155;DHT22;566;48.414;9.118;2023-05-07T08:29:42;26.60;67.80
1155;DHT22;566;48.414;9.118;2023-05-07T08:32:08;26.50;70.30
1155;DHT22;566;48.414;9.118;2023-05-07T08:34:33;25.80;71.20
1155;DHT22;566;48.414;9.118;2023-05-07T08:36:59;25.60;71.10
1155;DHT22;566;48.414;9.118;2023-05-07T08:39:24;25.00;73.00
1155;DHT22;566;48.414;9.118;2023-05-07T08:41:51;24.50;74.20
1155;DHT22;566;48.414;9.118;2023-05-07T08:44:21;24.50;74.60
1155;DHT22;566;48.414;9.118;2023-05-07T08:46:48;23.50;76.60
1155;DHT22;566;48.414;9.118;2023-05-07T08:49:17;22.90;78.50
1155;DHT22;566;48.414;9.118;2023-05-07T08:51:42;22.20;80.90
1155;DHT22;566;48.414;9.118;2023-05-07T08:54:09;21.30;82.40
1155;DHT22;566;48.414;9.118;2023-05-07T08:56:36;20.60;85.30
1155;DHT22;566;48.414;9.118;2023-05-07T08:59:01;20.90;85.20
1155;DHT22;566;48.414;9.118;2023-05-07T09:01:27;21.30;83.90
1155;DHT22;566;48.414;9.118;2023-05-07T09:03:53;21.50;83.40
1155;DHT22;566;48.414;9.118;2023-05-07T09:06:18;21.90;82.40
1155;DHT22;566;48.414;9.118;2023-05-07T09:08:51;22.20;82.30
1155;DHT22;566;48.414;9.118;2023-05-07T09:11:20;22.20;82.60
1155;DHT22;566;48.414;9.118;2023-05-07T09:13:46;22.60;81.60
1155;DHT22;566;48.414;9.118;2023-05-07T09:16:12;23.20;80.90
1155;DHT22;566;48.414;9.118;2023-05-07T09:18:44;24.00;78.10
1155;DHT22;566;48.414;9.118;2023-05-07T09:21:11;24.20;77.60
1155;DHT22;566;48.414;9.118;2023-05-07T09:23:39;24.60;77.00
1155;DHT22;566;48.414;9.118;2023-05-07T09:26:06;23.90;77.40
1155;DHT22;566;48.414;9.118;2023-05-07T09:28:38;22.90;79.40
1155;DHT22;566;48.414;9.118;2023-05-07T09:31:04;22.10;83.20
1155;DHT22;566;48.414;9.118;2023-05-07T09:33:30;21.60;84.20
1155;DHT22;566;48.414;9.118;2023-05-07T09:35:55;21.20;84.50
1155;DHT22;566;48.414;9.118;2023-05-07T09:38:21;21.00;85.90
1155;DHT22;566;48.414;9.118;2023-05-07T09:40:47;21.10;86.30
1155;DHT22;566;48.414;9.118;2023-05-07T09:43:13;21.80;85.30
1155;DHT22;566;48.414;9.118;2023-05-07T09:45:39;21.90;84.20
1155;DHT22;566;48.414;9.118;2023-05-07T09:48:05;22.40;83.40
1155;DHT22;566;48.414;9.118;2023-05-07T09:50:48;22.40;83.00
1155;DHT22;566;48.414;9.118;2023-05-07T09:53:14;22.20;83.90
1155;DHT22;566;48.414;9.118;2023-05-07T09:55:41;22.10;83.90
1155;DHT22;566;48.414;9.118;2023-05-07T09:58:07;21.80;84.10
1155;DHT22;566;48.414;9.118;2023-05-07T10:00:35;21.80;85.20
1155;DHT22;566;48.414;9.118;2023-05-07T10:03:01;21.90;85.20
1155;DHT22;566;48.414;9.118;2023-05-07T10:05:28;21.80;85.70
1155;DHT22;566;48.414;9.118;2023-05-07T10:07:54;21.60;86.20
1155;DHT22;566;48.414;9.118;2023-05-07T10:10:21;21.40;86.40
1155;DHT22;566;48.414;9.118;2023-05-07T10:12:47;21.10;86.40
1155;DHT22;566;48.414;9.118;2023-05-07T10:15:13;20.80;87.40
1155;DHT22;566;48.414;9.118;2023-05-07T10:17:40;20.80;87.40
1155;DHT22;566;48.414;9.118;2023-05-07T10:20:12;20.80;87.20
1155;DHT22;566;48.414;9.118;2023-05-07T10:22:47;20.90;87.20
1155;DHT22;566;48.414;9.118;2023-05-07T10:25:33;21.10;87.10
1155;DHT22;566;48.414;9.118;2023-05-07T10:28:08;20.90;87.20
1155;DHT22;566;48.414;9.118;2023-05-07T10:33:05;20.70;88.00
1155;DHT22;566;48.414;9.118;2023-05-07T10:35:40;21.50;87.30
1155;DHT22;566;48.414;9.118;2023-05-07T10:38:08;22.00;85.20
1155;DHT22;566;48.414;9.118;2023-05-07T10:40:34;22.40;84.10
1155;DHT22;566;48.414;9.118;2023-05-07T10:43:01;22.70;82.60
1155;DHT22;566;48.414;9.118;2023-05-07T10:45:42;22.70;81.50
1155;DHT22;566;48.414;9.118;2023-05-07T10:48:17;22.50;83.80
1155;DHT22;566;48.414;9.118;2023-05-07T10:50:44;22.80;81.70
1155;DHT22;566;48.414;9.118;2023-05-07T10:55:50;22.90;79.90
1155;DHT22;566;48.414;9.118;2023-05-07T10:58:28;23.40;79.90
1155;DHT22;566;48.414;9.118;2023-05-07T11:00:58;23.70;77.90
1155;DHT22;566;48.414;9.118;2023-05-07T11:03:25;23.50;76.60
1155;DHT22;566;48.414;9.118;2023-05-07T11:06:15;23.50;77.50
1155;DHT22;566;48.414;9.118;2023-05-07T11:08:56;23.50;77.40
1155;DHT22;566;48.414;9.118;2023-05-07T11:11:48;23.30;74.90
1155;DHT22;566;48.414;9.118;2023-05-07T11:17:14;22.90;78.40
1155;DHT22;566;48.414;9.118;2023-05-07T11:19:56;22.80;77.40
1155;DHT22;566;48.414;9.118;2023-05-07T11:25:03;23.40;73.30
1155;DHT22;566;48.414;9.118;2023-05-07T11:27:31;24.20;72.20
1155;DHT22;566;48.414;9.118;2023-05-07T11:29:58;24.50;71.30
1155;DHT22;566;48.414;9.118;2023-05-07T11:32:24;24.80;71.00
1155;DHT22;566;48.414;9.118;2023-05-07T11:34:54;24.70;70.50
1155;DHT22;566;48.414;9.118;2023-05-07T11:37:21;24.80;70.60
1155;DHT22;566;48.414;9.118;2023-05-07T11:39:47;24.80;71.00
1155;DHT22;566;48.414;9.118;2023-05-07T11:42:32;25.00;72.30
1155;DHT22;566;48.414;9.118;2023-05-07T11:44:58;25.10;70.90
1155;DHT22;566;48.414;9.118;2023-05-07T11:47:24;25.10;71.20
1155;DHT22;566;48.414;9.118;2023-05-07T11:49:53;24.90;71.70
1155;DHT22;566;48.414;9.118;2023-05-07T11:52:24;24.70;72.50
1155;DHT22;566;48.414;9.118;2023-05-07T11:54:57;24.20;71.50
1155;DHT22;566;48.414;9.118;2023-05-07T11:57:26;23.80;73.80
1155;DHT22;566;48.414;9.118;2023-05-07T12:02:19;23.50;75.40
1155;DHT22;566;48.414;9.118;2023-05-07T12:04:45;23.40;74.60
1155;DHT22;566;48.414;9.118;2023-05-07T12:07:15;23.10;75.00
1155;DHT22;566;48.414;9.118;2023-05-07T12:09:47;22.70;76.00
1155;DHT22;566;48.414;9.118;2023-05-07T12:12:13;22.30;75.90
1155;DHT22;566;48.414;9.118;2023-05-07T12:14:43;22.10;78.00
1155;DHT22;566;48.414;9.118;2023-05-07T12:17:11;21.90;78.10
1155;DHT22;566;48.414;9.118;2023-05-07T12:19:38;21.60;77.10
1155;DHT22;566;48.414;9.118;2023-05-07T12:22:04;21.40;77.00
1155;DHT22;566;48.414;9.118;2023-05-07T12:24:47;21.20;78.50
1155;DHT22;566;48.414;9.118;2023-05-07T12:27:13;21.10;80.00
1155;DHT22;566;48.414;9.118;2023-05-07T12:29:46;20.90;80.80
1155;DHT22;566;48.414;9.118;2023-05-07T12:32:20;20.70;81.30
1155;DHT22;566;48.414;9.118;2023-05-07T12:34:49;20.50;82.80
1155;DHT22;566;48.414;9.118;2023-05-07T12:37:14;20.30;84.20
1155;DHT22;566;48.414;9.118;2023-05-07T12:40:11;20.20;83.60
1155;DHT22;566;48.414;9.118;2023-05-07T12:42:38;20.00;86.40
1155;DHT22;566;48.414;9.118;2023-05-07T12:45:11;19.80;87.30
1155;DHT22;566;48.414;9.118;2023-05-07T12:47:36;19.40;87.90
1155;DHT22;566;48.414;9.118;2023-05-07T12:50:07;19.20;90.40
1155;DHT22;566;48.414;9.118;2023-05-07T12:52:33;18.80;93.20
1155;DHT22;566;48.414;9.118;2023-05-07T12:55:05;18.20;94.70
1155;DHT22;566;48.414;9.118;2023-05-07T12:57:45;17.80;95.30
1155;DHT22;566;48.414;9.118;2023-05-07T13:00:13;17.60;94.80
1155;DHT22;566;48.414;9.118;2023-05-07T13:02:40;17.30;93.90
1155;DHT22;566;48.414;9.118;2023-05-07T13:05:07;16.80;94.40
1155;DHT22;566;48.414;9.118;2023-05-07T13:07:33;16.10;92.00
1155;DHT22;566;48.414;9.118;2023-05-07T13:09:58;15.40;94.30
1155;DHT22;566;48.414;9.118;2023-05-07T13:12:24;14.90;90.50
1155;DHT22;566;48.414;9.118;2023-05-07T13:14:49;14.50;87.50
1155;DHT22;566;48.414;9.118;2023-05-07T13:17:15;14.30;84.90
1155;DHT22;566;48.414;9.118;2023-05-07T13:19:40;14.20;82.30
1155;DHT22;566;48.414;9.118;2023-05-07T13:22:06;14.00;81.90
1155;DHT22;566;48.414;9.118;2023-05-07T13:24:31;13.90;80.70
1155;DHT22;566;48.414;9.118;2023-05-07T13:26:57;13.80;80.30
1155;DHT22;566;48.414;9.118;2023-05-07T13:29:23;13.60;79.10
1155;DHT22;566;48.414;9.118;2023-05-07T13:31:56;13.50;77.00
1155;DHT22;566;48.414;9.118;2023-05-07T13:34:22;13.50;74.50
1155;DHT22;566;48.414;9.118;2023-05-07T13:36:48;13.40;73.10
1155;DHT22;566;48.414;9.118;2023-05-07T13:39:13;13.30;73.30
1155;DHT22;566;48.414;9.118;2023-05-07T13:41:39;13.20;74.90
1155;DHT22;566;48.414;9.118;2023-05-07T13:44:04;13.20;72.90
1155;DHT22;566;48.414;9.118;2023-05-07T13:46:30;13.20;72.40
1155;DHT22;566;48.414;9.118;2023-05-07T13:48:56;13.20;72.60
1155;DHT22;566;48.414;9.118;2023-05-07T13:51:22;13.10;70.50
1155;DHT22;566;48.414;9.118;2023-05-07T13:53:47;13.10;70.20
1155;DHT22;566;48.414;9.118;2023-05-07T13:56:13;13.20;67.60
1155;DHT22;566;48.414;9.118;2023-05-07T13:58:39;13.20;67.30
1155;DHT22;566;48.414;9.118;2023-05-07T14:01:05;13.00;68.20
1155;DHT22;566;48.414;9.118;2023-05-07T14:03:31;12.80;67.90
1155;DHT22;566;48.414;9.118;2023-05-07T14:05:58;12.90;64.40
1155;DHT22;566;48.414;9.118;2023-05-07T14:08:25;12.90;65.40
1155;DHT22;566;48.414;9.118;2023-05-07T14:10:51;13.00;65.10
1155;DHT22;566;48.414;9.118;2023-05-07T14:13:17;13.10;63.00
1155;DHT22;566;48.414;9.118;2023-05-07T14:15:42;13.20;62.20
1155;DHT22;566;48.414;9.118;2023-05-07T14:18:15;13.30;63.00
1155;DHT22;566;48.414;9.118;2023-05-07T14:20:41;13.40;62.50
1155;DHT22;566;48.414;9.118;2023-05-07T14:23:08;13.50;62.80
1155;DHT22;566;48.414;9.118;2023-05-07T14:25:34;13.60;63.10
1155;DHT22;566;48.414;9.118;2023-05-07T14:28:06;13.60;64.10
1155;DHT22;566;48.414;9.118;2023-05-07T14:30:35;13.60;65.10
1155;DHT22;566;48.414;9.118;2023-05-07T14:33:00;13.60;65.60
1155;DHT22;566;48.414;9.118;2023-05-07T14:35:26;13.70;66.80
1155;DHT22;566;48.414;9.118;2023-05-07T14:37:51;13.80;66.60
1155;DHT22;566;48.414;9.118;2023-05-07T14:40:17;14.00;69.70
1155;DHT22;566;48.414;9.118;2023-05-07T14:42:42;14.00;72.80
1155;DHT22;566;48.414;9.118;2023-05-07T14:45:08;14.10;75.20
1155;DHT22;566;48.414;9.118;2023-05-07T14:47:34;14.20;75.50
1155;DHT22;566;48.414;9.118;2023-05-07T14:49:59;14.40;74.50
1155;DHT22;566;48.414;9.118;2023-05-07T14:52:26;14.60;76.90
1155;DHT22;566;48.414;9.118;2023-05-07T14:54:51;14.80;79.60
1155;DHT22;566;48.414;9.118;2023-05-07T14:57:17;15.00;80.40
1155;DHT22;566;48.414;9.118;2023-05-07T14:59:43;15.20;81.40
1155;DHT22;566;48.414;9.118;2023-05-07T15:02:11;15.50;86.50
1155;DHT22;566;48.414;9.118;2023-05-07T15:04:39;15.40;90.70
1155;DHT22;566;48.414;9.118;2023-05-07T15:07:11;15.30;88.60
1155;DHT22;566;48.414;9.118;2023-05-07T15:09:37;15.20;88.90
1155;DHT22;566;48.414;9.118;2023-05-07T15:12:02;15.20;87.40
1155;DHT22;566;48.414;9.118;2023-05-07T15:14:29;15.50;90.30
1155;DHT22;566;48.414;9.118;2023-05-07T15:16:57;15.70;90.20
1155;DHT22;566;48.414;9.118;2023-05-07T15:19:23;15.90;91.10
1155;DHT22;566;48.414;9.118;2023-05-07T15:21:50;16.00;92.40
1155;DHT22;566;48.414;9.118;2023-05-07T15:24:15;16.20;93.90
1155;DHT22;566;48.414;9.118;2023-05-07T15:26:41;16.40;95.40
1155;DHT22;566;48.414;9.118;2023-05-07T15:29:06;16.50;95.10
1155;DHT22;566;48.414;9.118;2023-05-07T15:31:35;16.60;94.90
1155;DHT22;566;48.414;9.118;2023-05-07T15:34:02;16.80;96.80
1155;DHT22;566;48.414;9.118;2023-05-07T15:36:28;17.00;96.50
1155;DHT22;566;48.414;9.118;2023-05-07T15:38:53;17.20;97.40
1155;DHT22;566;48.414;9.118;2023-05-07T15:41:19;17.10;97.60
1155;DHT22;566;48.414;9.118;2023-05-07T15:43:48;17.20;97.70
1155;DHT22;566;48.414;9.118;2023-05-07T15:46:19;17.00;96.90
1155;DHT22;566;48.414;9.118;2023-05-07T15:48:45;16.70;96.10
1155;DHT22;566;48.414;9.118;2023-05-07T15:51:11;16.60;94.80
1155;DHT22;566;48.414;9.118;2023-05-07T15:53:37;16.50;95.40
1155;DHT22;566;48.414;9.118;2023-05-07T15:56:04;16.40;94.30
1155;DHT22;566;48.414;9.118;2023-05-07T15:58:30;16.30;92.90
1155;DHT22;566;48.414;9.118;2023-05-07T16:00:55;16.30;93.40
1155;DHT22;566;48.414;9.118;2023-05-07T16:03:21;16.20;93.40
1155;DHT22;566;48.414;9.118;2023-05-07T16:05:47;16.00;92.40
1155;DHT22;566;48.414;9.118;2023-05-07T16:08:13;15.90;92.10
1155;DHT22;566;48.414;9.118;2023-05-07T16:10:39;16.00;92.80
1155;DHT22;566;48.414;9.118;2023-05-07T16:13:04;16.00;93.60
1155;DHT22;566;48.414;9.118;2023-05-07T16:15:30;16.00;93.20
1155;DHT22;566;48.414;9.118;2023-05-07T16:17:55;16.20;94.20
1155;DHT22;566;48.414;9.118;2023-05-07T16:20:26;16.20;93.90
1155;DHT22;566;48.414;9.118;2023-05-07T16:22:54;16.20;93.90
1155;DHT22;566;48.414;9.118;2023-05-07T16:25:19;16.10;94.50
1155;DHT22;566;48.414;9.118;2023-05-07T16:27:45;16.00;93.10
1155;DHT22;566;48.414;9.118;2023-05-07T16:30:11;16.00;93.40